Kuan Yin — KUANYIN — position and weather

sailwx.info

Track history (hours):
 
Tides and Currents Weather Stations Pressure Air Temp Water Temp Dewpoint Dewpoint Depression Visibility Wind Speed Wind Dir Waves Ship Positions

Kuan Yin

Last reported at 2018-Jan-29 15:28 UTC. Time now 2018-Feb-26 01:33 UTC.
Position N 32°42' W 117°21'.
Warning: this ship's position is 27 days out of date.

Length 11 m.

Type: Sailing vessel. MMSI: 367798540.

Date/timePositionNaut miles runAvg speedWind from/ knotsBaromVisibWave heightAir tempDewpointWater temp
2018-Jan-29 15:28N 32°42' W 117°21'2 3.5
2018-Jan-29 14:47N 32°44' W 117°23'1 3.1
2018-Jan-29 14:30N 32°44' W 117°24'1 2.9
2018-Jan-29 14:00N 32°46' W 117°24'2 4.8
2018-Jan-29 13:30N 32°47' W 117°27'2 3.2
2018-Jan-29 13:00N 32°48' W 117°28'2 4.0
2018-Jan-29 12:30N 32°50' W 117°30'3 5.3
2018-Jan-29 12:00N 32°51' W 117°32'3 4.9
2018-Jan-29 11:26N 32°53' W 117°35'2 5.1
2018-Jan-29 10:59N 32°54' W 117°37'3 5.3
2018-Jan-29 10:27N 32°56' W 117°40'2 5.1
2018-Jan-29 09:59N 32°58' W 117°42'3 5.1
2018-Jan-29 09:29N 32°59' W 117°44'3 5.3
2018-Jan-29 08:58N 33°01' W 117°47'2 5.1
2018-Jan-29 08:30N 33°02' W 117°49'3 5.3
2018-Jan-29 07:58N 33°04' W 117°52'53 1.5
2018-Jan-27 21:27N 33°38' W 118°40'6 5.4
2018-Jan-27 20:21N 33°42' W 118°46'3 5.3
2018-Jan-27 19:52N 33°43' W 118°48'2 5.2
2018-Jan-27 19:30N 33°44' W 118°50'3 4.7
2018-Jan-27 18:58N 33°46' W 118°52'3 5.8
2018-Jan-27 18:30N 33°47' W 118°55'3 5.2
2018-Jan-27 17:58N 33°49' W 118°58'2 5.1
2018-Jan-27 17:30N 33°50' W 119°00'2 5.1
2018-Jan-27 17:01N 33°52' W 119°02'3 5.5
2018-Jan-27 16:28N 33°54' W 119°06'3 5.7
2018-Jan-27 15:55N 33°55' W 119°09'3 5.5
2018-Jan-27 15:19N 33°57' W 119°12'2 5.6
2018-Jan-27 14:59N 33°58' W 119°14'2 5.0
2018-Jan-27 14:30N 34°01' W 119°14'3 5.0
2018-Jan-27 13:58N 34°03' W 119°14'3 4.8
2018-Jan-27 13:21N 34°06' W 119°14'2 4.8
2018-Jan-27 12:59N 34°08' W 119°14'2 0.2
2018-Jan-27 02:44N 34°10' W 119°14'0 0.0
2018-Jan-27 02:26N 34°10' W 119°14'0 0.0
2018-Jan-27 01:50N 34°10' W 119°14'  
2018-Jan-24 02:07N 34°10' W 119°14'0 0.0
2018-Jan-24 01:52N 34°10' W 119°14'  
2018-Jan-20 21:51N 34°10' W 119°14'  
Track history (hours):
 
Tides and Currents Weather Stations Pressure Air Temp Water Temp Dewpoint Dewpoint Depression Visibility Wind Speed Wind Dir Waves Ship Positions

Kuan Yin

Last reported at 2018-Jan-29 15:28 UTC. Time now 2018-Feb-26 01:33 UTC.
Position N 32°42' W 117°21'.
Warning: this ship's position is 27 days out of date.

Length 11 m.

Type: Sailing vessel. MMSI: 367798540.

Date/timePositionNaut miles runAvg speedWind from/ knotsBaromVisibWave heightAir tempDewpointWater temp
2018-Jan-29 15:28N 32°42' W 117°21'2 3.5
2018-Jan-29 14:47N 32°44' W 117°23'1 3.1
2018-Jan-29 14:30N 32°44' W 117°24'1 2.9
2018-Jan-29 14:00N 32°46' W 117°24'2 4.8
2018-Jan-29 13:30N 32°47' W 117°27'2 3.2
2018-Jan-29 13:00N 32°48' W 117°28'2 4.0
2018-Jan-29 12:30N 32°50' W 117°30'3 5.3
2018-Jan-29 12:00N 32°51' W 117°32'3 4.9
2018-Jan-29 11:26N 32°53' W 117°35'2 5.1
2018-Jan-29 10:59N 32°54' W 117°37'3 5.3
2018-Jan-29 10:27N 32°56' W 117°40'2 5.1
2018-Jan-29 09:59N 32°58' W 117°42'3 5.1
2018-Jan-29 09:29N 32°59' W 117°44'3 5.3
2018-Jan-29 08:58N 33°01' W 117°47'2 5.1
2018-Jan-29 08:30N 33°02' W 117°49'3 5.3
2018-Jan-29 07:58N 33°04' W 117°52'53 1.5
2018-Jan-27 21:27N 33°38' W 118°40'6 5.4
2018-Jan-27 20:21N 33°42' W 118°46'3 5.3
2018-Jan-27 19:52N 33°43' W 118°48'2 5.2
2018-Jan-27 19:30N 33°44' W 118°50'3 4.7
2018-Jan-27 18:58N 33°46' W 118°52'3 5.8
2018-Jan-27 18:30N 33°47' W 118°55'3 5.2
2018-Jan-27 17:58N 33°49' W 118°58'2 5.1
2018-Jan-27 17:30N 33°50' W 119°00'2 5.1
2018-Jan-27 17:01N 33°52' W 119°02'3 5.5
2018-Jan-27 16:28N 33°54' W 119°06'3 5.7
2018-Jan-27 15:55N 33°55' W 119°09'3 5.5
2018-Jan-27 15:19N 33°57' W 119°12'2 5.6
2018-Jan-27 14:59N 33°58' W 119°14'2 5.0
2018-Jan-27 14:30N 34°01' W 119°14'3 5.0
2018-Jan-27 13:58N 34°03' W 119°14'3 4.8
2018-Jan-27 13:21N 34°06' W 119°14'2 4.8
2018-Jan-27 12:59N 34°08' W 119°14'2 0.2
2018-Jan-27 02:44N 34°10' W 119°14'0 0.0
2018-Jan-27 02:26N 34°10' W 119°14'0 0.0
2018-Jan-27 01:50N 34°10' W 119°14'  
2018-Jan-24 02:07N 34°10' W 119°14'0 0.0
2018-Jan-24 01:52N 34°10' W 119°14'  
2018-Jan-20 21:51N 34°10' W 119°14'  

Dump ship's entire track history